createdAt,value
2023-03-28T00:01:01.616Z,102038.44
2023-03-28T00:03:29.870Z,102040.34
2023-03-28T00:06:02.662Z,102053.00
2023-03-28T00:08:30.251Z,102054.44
2023-03-28T00:11:15.696Z,102052.56
2023-03-28T00:13:42.612Z,102056.47
2023-03-28T00:16:13.169Z,102065.13
2023-03-28T00:18:41.666Z,102053.22
2023-03-28T00:21:20.563Z,102071.28
2023-03-28T00:23:52.651Z,102078.47
2023-03-28T00:26:20.902Z,102079.13
2023-03-28T00:28:48.660Z,102083.16
2023-03-28T00:31:15.970Z,102094.69
2023-03-28T00:33:44.419Z,102096.28
2023-03-28T00:36:11.420Z,102102.19
2023-03-28T00:38:39.104Z,102081.78
2023-03-28T00:41:09.942Z,102103.66
2023-03-28T00:43:39.600Z,102106.31
2023-03-28T00:46:30.013Z,102120.78
2023-03-28T00:49:11.193Z,102115.75
2023-03-28T00:51:45.245Z,102125.41
2023-03-28T00:54:16.187Z,102130.06
2023-03-28T00:56:47.539Z,102128.63
2023-03-28T00:59:19.439Z,102131.59
2023-03-28T01:01:47.537Z,102130.34
2023-03-28T01:04:20.670Z,102128.28
2023-03-28T01:06:52.310Z,102130.19
2023-03-28T01:09:21.308Z,102140.91
2023-03-28T01:11:49.373Z,102143.66
2023-03-28T01:14:20.860Z,102148.63
2023-03-28T01:16:48.089Z,102148.75
2023-03-28T01:19:27.433Z,102144.53
2023-03-28T01:22:25.832Z,102157.38
2023-03-28T01:25:30.078Z,102158.28
2023-03-28T01:28:10.630Z,102165.88
2023-03-28T01:30:56.657Z,102175.09
2023-03-28T01:33:29.665Z,102167.78
2023-03-28T01:36:34.061Z,102174.53
2023-03-28T01:39:05.494Z,102174.31
2023-03-28T01:41:46.379Z,102168.22
2023-03-28T01:44:33.434Z,102178.09
2023-03-28T01:47:22.662Z,102159.81
2023-03-28T01:50:03.486Z,102168.22
2023-03-28T01:52:41.413Z,102171.19
2023-03-28T01:55:12.440Z,102176.44
2023-03-28T01:57:53.458Z,102187.56
2023-03-28T02:00:24.558Z,102173.69
2023-03-28T02:03:00.911Z,102188.22
2023-03-28T02:05:31.887Z,102191.34
2023-03-28T02:08:01.644Z,102190.69
2023-03-28T02:10:31.968Z,102191.97
2023-03-28T02:13:12.737Z,102176.19
2023-03-28T02:15:42.893Z,102183.78
2023-03-28T02:18:20.819Z,102181.25
2023-03-28T02:20:54.777Z,102193.44
2023-03-28T02:23:27.280Z,102189.84
2023-03-28T02:25:54.258Z,102187.28
2023-03-28T02:28:22.742Z,102195.31
2023-03-28T02:30:50.206Z,102169.63
2023-03-28T02:33:41.735Z,102198.22
2023-03-28T02:36:27.741Z,102198.84
2023-03-28T02:39:32.143Z,102202.00
2023-03-28T02:42:07.871Z,102206.84
2023-03-28T02:44:37.830Z,102197.63
2023-03-28T02:47:11.134Z,102196.16
2023-03-28T02:49:56.201Z,102189.84
2023-03-28T02:52:40.421Z,102173.00
2023-03-28T02:55:33.882Z,102202.69
2023-03-28T02:58:11.765Z,102211.50
2023-03-28T03:00:39.954Z,102215.50
2023-03-28T03:03:10.707Z,102210.06
2023-03-28T03:05:38.351Z,102208.81
2023-03-28T03:08:05.572Z,102211.34
2023-03-28T03:10:32.449Z,102208.38
2023-03-28T03:12:59.507Z,102208.38
2023-03-28T03:15:31.130Z,102205.63
2023-03-28T03:17:59.449Z,102204.97
2023-03-28T03:20:27.710Z,102210.25
2023-03-28T03:22:55.709Z,102213.16
2023-03-28T03:25:22.576Z,102216.50
2023-03-28T03:27:49.469Z,102223.00
2023-03-28T03:30:16.378Z,102215.88
2023-03-28T03:32:44.409Z,102215.41
2023-03-28T03:35:11.657Z,102221.59
2023-03-28T03:37:39.036Z,102214.41
2023-03-28T03:40:06.898Z,102223.91
2023-03-28T03:42:33.995Z,102225.31
2023-03-28T03:45:01.068Z,102206.63
2023-03-28T03:47:28.029Z,102226.41
2023-03-28T03:49:54.951Z,102224.38
2023-03-28T03:52:21.988Z,102219.75
2023-03-28T03:54:48.787Z,102214.78
2023-03-28T03:57:15.851Z,102215.66
2023-03-28T03:59:42.788Z,102213.38
2023-03-28T04:02:09.675Z,102215.66
2023-03-28T04:04:37.198Z,102221.53
2023-03-28T04:07:04.196Z,102217.13
2023-03-28T04:09:31.934Z,102225.47
2023-03-28T04:11:58.668Z,102225.50
2023-03-28T04:14:25.454Z,102217.91
2023-03-28T04:16:54.091Z,102232.00
2023-03-28T04:19:21.423Z,102229.72
2023-03-28T04:21:49.335Z,102230.59
2023-03-28T04:24:16.713Z,102226.59
2023-03-28T04:26:46.033Z,102230.84
2023-03-28T04:29:13.240Z,102240.28
2023-03-28T04:31:40.449Z,102235.03
2023-03-28T04:34:07.769Z,102244.28
2023-03-28T04:36:34.859Z,102239.66
2023-03-28T04:39:05.013Z,102243.22
2023-03-28T04:41:34.635Z,102247.00
2023-03-28T04:44:01.843Z,102252.63
2023-03-28T04:46:31.713Z,102248.22
2023-03-28T04:48:58.704Z,102251.81
2023-03-28T04:51:25.833Z,102254.94
2023-03-28T04:53:52.650Z,102242.94
2023-03-28T04:56:19.815Z,102250.75
2023-03-28T04:58:46.829Z,102250.72
2023-03-28T05:01:14.021Z,102259.31
2023-03-28T05:03:41.241Z,102263.53
2023-03-28T05:06:08.494Z,102270.72
2023-03-28T05:08:35.395Z,102276.44
2023-03-28T05:11:02.741Z,102275.81
2023-03-28T05:13:30.256Z,102261.03
2023-03-28T05:15:57.282Z,102284.44
2023-03-28T05:18:24.419Z,102277.09
2023-03-28T05:20:51.750Z,102287.59
2023-03-28T05:23:18.670Z,102293.72
2023-03-28T05:25:53.555Z,102295.44
2023-03-28T05:28:21.490Z,102298.34
2023-03-28T05:30:48.389Z,102299.00
2023-03-28T05:33:15.617Z,102301.13
2023-03-28T05:35:42.750Z,102304.50
2023-03-28T05:38:09.766Z,102308.28
2023-03-28T05:40:37.444Z,102303.44
2023-03-28T05:43:04.779Z,102309.88
2023-03-28T05:45:31.720Z,102307.13
2023-03-28T05:47:58.693Z,102308.47
2023-03-28T05:50:26.603Z,102300.59
2023-03-28T05:52:53.597Z,102299.88
2023-03-28T05:55:20.489Z,102263.38
2023-03-28T05:57:47.421Z,102303.22
2023-03-28T06:00:15.202Z,102312.13
2023-03-28T06:02:43.554Z,102311.72
2023-03-28T06:05:14.261Z,102309.31
2023-03-28T06:07:42.929Z,102293.66
2023-03-28T06:10:12.124Z,102305.28
2023-03-28T06:12:39.453Z,102295.88
2023-03-28T06:15:07.570Z,102302.34
2023-03-28T06:17:34.815Z,102303.59
2023-03-28T06:20:01.742Z,102298.44
2023-03-28T06:22:29.250Z,102312.06
2023-03-28T06:24:56.277Z,102300.00
2023-03-28T06:27:23.267Z,102309.13
2023-03-28T06:29:50.738Z,102310.00
2023-03-28T06:32:19.333Z,102317.06
2023-03-28T06:34:46.564Z,102289.09
2023-03-28T06:37:13.540Z,102295.06
2023-03-28T06:39:40.986Z,102296.91
2023-03-28T06:42:08.233Z,102290.03
2023-03-28T06:44:35.262Z,102277.91
2023-03-28T06:47:02.933Z,102298.66
2023-03-28T06:49:29.999Z,102305.41
2023-03-28T06:51:59.845Z,102316.16
2023-03-28T06:54:26.819Z,102322.34
2023-03-28T06:56:53.777Z,102330.78
2023-03-28T06:59:20.872Z,102327.69
2023-03-28T07:01:47.876Z,102334.88
2023-03-28T07:04:14.785Z,102335.16
2023-03-28T07:06:41.686Z,102329.75
2023-03-28T07:09:08.772Z,102337.44
2023-03-28T07:11:35.608Z,102338.00
2023-03-28T07:14:02.575Z,102328.13
2023-03-28T07:16:31.940Z,102335.69
2023-03-28T07:18:58.866Z,102340.00
2023-03-28T07:21:25.812Z,102349.38
2023-03-28T07:23:52.662Z,102351.47
2023-03-28T07:26:19.713Z,102352.00
2023-03-28T07:28:46.870Z,102363.28
2023-03-28T07:31:13.874Z,102364.66
2023-03-28T07:33:41.082Z,102369.53
2023-03-28T07:36:17.155Z,102369.94
2023-03-28T07:38:46.560Z,102373.25
2023-03-28T07:41:15.106Z,102362.16
2023-03-28T07:43:42.300Z,102365.38
2023-03-28T07:46:11.566Z,102357.16
2023-03-28T07:48:38.940Z,102363.09
2023-03-28T07:51:10.380Z,102341.84
2023-03-28T07:53:38.186Z,102361.34
2023-03-28T07:56:10.813Z,102363.75
2023-03-28T07:58:39.272Z,102320.44
2023-03-28T08:01:12.503Z,102372.00
2023-03-28T08:03:40.648Z,102386.25
2023-03-28T08:06:28.788Z,102390.72
2023-03-28T08:08:58.315Z,102385.47
2023-03-28T08:11:25.325Z,102391.22
2023-03-28T08:13:52.427Z,102401.00
2023-03-28T08:16:19.589Z,102398.34
2023-03-28T08:18:48.765Z,102406.50
2023-03-28T08:21:21.442Z,102410.25
2023-03-28T08:23:48.622Z,102410.25
2023-03-28T08:26:15.604Z,102408.84
2023-03-28T08:28:42.461Z,102409.34
2023-03-28T08:31:14.599Z,102402.22
2023-03-28T08:33:43.490Z,102398.47
2023-03-28T08:36:15.213Z,102402.44
2023-03-28T08:38:43.327Z,102391.75
2023-03-28T08:41:29.301Z,102387.22
2023-03-28T08:44:14.234Z,102391.63
2023-03-28T08:46:44.518Z,102394.06
2023-03-28T08:49:20.704Z,102387.50
2023-03-28T08:51:59.680Z,102408.75
2023-03-28T08:54:31.958Z,102428.81
2023-03-28T08:57:03.093Z,102418.50
2023-03-28T08:59:40.945Z,102419.63
2023-03-28T09:02:27.031Z,102423.81
2023-03-28T09:05:02.118Z,102429.09
2023-03-28T09:07:57.694Z,102408.19
2023-03-28T09:10:42.713Z,102402.25
2023-03-28T09:13:26.257Z,102391.69
2023-03-28T09:16:03.386Z,102396.28
2023-03-28T09:19:15.658Z,102385.69
2023-03-28T09:22:04.913Z,102379.22
2023-03-28T09:24:39.805Z,102381.69
2023-03-28T09:27:18.436Z,102385.75
2023-03-28T09:29:47.597Z,102395.09
2023-03-28T09:32:26.912Z,102405.53
2023-03-28T09:34:53.932Z,102417.53
2023-03-28T09:37:41.087Z,102417.81
2023-03-28T09:40:23.096Z,102429.34
2023-03-28T09:43:09.373Z,102435.16
2023-03-28T09:45:36.421Z,102446.72
2023-03-28T09:48:06.416Z,102445.78
2023-03-28T09:50:33.347Z,102390.50
2023-03-28T09:53:00.465Z,102440.06
2023-03-28T09:55:30.196Z,102430.78
2023-03-28T09:58:06.761Z,102433.66
2023-03-28T10:00:40.566Z,102439.84
2023-03-28T10:03:23.583Z,102400.03
2023-03-28T10:05:51.942Z,102425.63
2023-03-28T10:08:37.100Z,102416.72
2023-03-28T10:11:07.167Z,102413.69
2023-03-28T10:13:40.791Z,102407.81
2023-03-28T10:16:10.680Z,102421.28
2023-03-28T10:18:40.937Z,102429.47
2023-03-28T10:21:21.187Z,102422.78
2023-03-28T10:24:08.297Z,102416.47
2023-03-28T10:26:35.393Z,102422.19
2023-03-28T10:29:06.497Z,102415.06
2023-03-28T10:31:34.240Z,102408.09
2023-03-28T10:34:05.933Z,102395.41
2023-03-28T10:36:40.480Z,102396.59
2023-03-28T10:39:33.785Z,102395.78
2023-03-28T10:42:02.134Z,102406.38
2023-03-28T10:44:37.008Z,102399.28
2023-03-28T10:47:08.685Z,102399.88
2023-03-28T10:49:47.477Z,102400.06
2023-03-28T10:52:52.663Z,102407.94
2023-03-28T10:55:26.828Z,102385.69
2023-03-28T10:58:11.728Z,102388.03
2023-03-28T11:00:43.208Z,102382.03
2023-03-28T11:03:30.080Z,102374.66
2023-03-28T11:06:19.566Z,102373.03
2023-03-28T11:09:04.046Z,102375.84
2023-03-28T11:11:46.497Z,102371.31
2023-03-28T11:14:25.934Z,102378.53
2023-03-28T11:17:27.624Z,102384.94
2023-03-28T11:20:17.776Z,102397.41
2023-03-28T11:23:06.327Z,102399.34
2023-03-28T11:25:55.258Z,102391.31
2023-03-28T11:28:31.371Z,102409.84
2023-03-28T11:31:00.839Z,102408.88
2023-03-28T11:34:18.200Z,102407.97
2023-03-28T11:37:04.227Z,102418.78
2023-03-28T11:39:44.054Z,102429.44
2023-03-28T11:42:27.834Z,102435.94
2023-03-28T11:45:08.195Z,102447.78
2023-03-28T11:47:45.361Z,102449.22
2023-03-28T11:50:38.435Z,102448.25
2023-03-28T11:53:13.717Z,102454.91
2023-03-28T11:55:49.346Z,102443.66
2023-03-28T11:58:26.625Z,102447.88
2023-03-28T12:01:19.579Z,102446.78
2023-03-28T12:04:08.172Z,102422.13
2023-03-28T12:06:52.163Z,102420.09
2023-03-28T12:09:54.529Z,102415.31
2023-03-28T12:12:55.669Z,102417.25
2023-03-28T12:15:47.411Z,102416.53
2023-03-28T12:18:26.536Z,102416.50
2023-03-28T12:21:04.086Z,102415.97
2023-03-28T12:23:33.917Z,102415.44
2023-03-28T12:26:13.328Z,102408.63
2023-03-28T12:28:43.956Z,102414.25
2023-03-28T12:31:22.604Z,102400.00
2023-03-28T12:34:02.772Z,102397.59
2023-03-28T12:37:02.683Z,102405.63
2023-03-28T12:39:56.015Z,102398.22
2023-03-28T12:42:25.229Z,102401.88
2023-03-28T12:45:04.465Z,102405.50
2023-03-28T12:47:43.300Z,102407.78
2023-03-28T12:50:25.304Z,102413.44
2023-03-28T12:52:53.506Z,102406.75
2023-03-28T12:55:29.373Z,102404.50
2023-03-28T12:58:28.731Z,102407.03
2023-03-28T13:01:07.551Z,102414.56
2023-03-28T13:03:58.518Z,102410.88
2023-03-28T13:06:28.603Z,102401.72
2023-03-28T13:09:30.152Z,102387.34
2023-03-28T13:12:21.287Z,102393.72
2023-03-28T13:15:27.921Z,102380.16
2023-03-28T13:18:22.518Z,102378.84
2023-03-28T13:20:52.199Z,102369.81
2023-03-28T13:23:27.588Z,102369.94
2023-03-28T13:26:00.781Z,102359.00
2023-03-28T13:28:51.348Z,102356.88
2023-03-28T13:31:18.281Z,102352.34
2023-03-28T13:34:01.964Z,102355.19
2023-03-28T13:36:34.115Z,102348.41
2023-03-28T13:39:19.037Z,102353.00
2023-03-28T13:41:45.928Z,102338.28
2023-03-28T13:44:16.489Z,102326.31
2023-03-28T13:46:47.785Z,102328.28
2023-03-28T13:49:19.299Z,102325.09
2023-03-28T13:51:49.222Z,102321.16
2023-03-28T13:54:16.507Z,102327.41
2023-03-28T13:56:46.974Z,102321.38
2023-03-28T13:59:19.609Z,102324.16
2023-03-28T14:01:54.145Z,102320.91
2023-03-28T14:04:27.972Z,102309.84
2023-03-28T14:06:55.894Z,102319.16
2023-03-28T14:09:28.860Z,102305.63
2023-03-28T14:12:00.526Z,102301.50
2023-03-28T14:14:37.936Z,102297.31
2023-03-28T14:17:07.990Z,102299.78
2023-03-28T14:19:44.866Z,102289.28
2023-03-28T14:22:21.368Z,102293.97
2023-03-28T14:24:52.256Z,102283.34
2023-03-28T14:27:41.033Z,102266.38
2023-03-28T14:30:31.198Z,102266.75
2023-03-28T14:33:18.730Z,102251.59
2023-03-28T14:35:57.634Z,102264.88
2023-03-28T14:38:32.501Z,102267.84
2023-03-28T14:41:08.822Z,102266.25
2023-03-28T14:43:36.872Z,102255.13
2023-03-28T14:46:08.363Z,102258.03
2023-03-28T14:48:37.306Z,102239.25
2023-03-28T14:51:06.126Z,102246.00
2023-03-28T14:53:41.341Z,102261.72
2023-03-28T14:56:11.703Z,102253.53
2023-03-28T14:58:45.169Z,102248.97
2023-03-28T15:01:23.656Z,102232.25
2023-03-28T15:04:00.182Z,102240.84
2023-03-28T15:06:30.741Z,102231.75
2023-03-28T15:09:10.059Z,102228.91
2023-03-28T15:11:41.512Z,102234.84
2023-03-28T15:14:24.482Z,102235.53
2023-03-28T15:16:54.353Z,102218.25
2023-03-28T15:19:29.116Z,102227.47
2023-03-28T15:22:04.466Z,102213.03
2023-03-28T15:24:32.181Z,102217.84
2023-03-28T15:27:04.000Z,102199.84
2023-03-28T15:29:35.989Z,102212.75
2023-03-28T15:32:11.948Z,102206.78
2023-03-28T15:35:06.098Z,102199.22
2023-03-28T15:37:45.071Z,102202.00
2023-03-28T15:40:22.552Z,102192.34
2023-03-28T15:42:51.191Z,102194.16
2023-03-28T15:45:24.624Z,102164.81
2023-03-28T15:47:55.986Z,102173.16
2023-03-28T15:50:33.572Z,102171.13
2023-03-28T15:53:05.966Z,102176.84
2023-03-28T15:55:34.293Z,102172.91
2023-03-28T15:58:04.050Z,102164.31
2023-03-28T16:00:55.479Z,102165.78
2023-03-28T16:03:25.155Z,102154.22
2023-03-28T16:06:10.196Z,102157.59
2023-03-28T16:08:41.359Z,102161.31
2023-03-28T16:11:26.984Z,102155.19
2023-03-28T16:13:54.277Z,102156.91
2023-03-28T16:16:29.848Z,102157.78
2023-03-28T16:18:56.719Z,102163.28
2023-03-28T16:21:23.388Z,102154.06
2023-03-28T16:23:50.287Z,102156.59
2023-03-28T16:26:17.130Z,102139.31
2023-03-28T16:28:48.726Z,102159.69
2023-03-28T16:31:15.946Z,102152.22
2023-03-28T16:33:42.928Z,102153.13
2023-03-28T16:36:12.940Z,102165.72
2023-03-28T16:38:43.080Z,102164.91
2023-03-28T16:41:09.950Z,102156.28
2023-03-28T16:43:38.397Z,102169.34
2023-03-28T16:46:05.756Z,102152.94
2023-03-28T16:48:34.690Z,102165.19
2023-03-28T16:51:08.379Z,102161.56
2023-03-28T16:53:37.053Z,102169.88
2023-03-28T16:56:07.082Z,102164.63
2023-03-28T16:58:33.970Z,102165.16
2023-03-28T17:01:08.053Z,102132.09
2023-03-28T17:03:36.258Z,102168.50
2023-03-28T17:06:10.053Z,102161.56
2023-03-28T17:08:37.210Z,102174.91
2023-03-28T17:11:09.470Z,102174.84
2023-03-28T17:13:37.566Z,102170.34
2023-03-28T17:16:05.000Z,102168.13
2023-03-28T17:18:32.179Z,102162.22
2023-03-28T17:21:07.328Z,102165.88
2023-03-28T17:23:38.958Z,102159.91
2023-03-28T17:26:08.837Z,102148.41
2023-03-28T17:28:39.269Z,102153.88
2023-03-28T17:31:12.239Z,102154.06
2023-03-28T17:33:42.626Z,102158.00
2023-03-28T17:36:29.915Z,102158.72
2023-03-28T17:39:00.706Z,102145.03
2023-03-28T17:41:28.236Z,102153.28
2023-03-28T17:43:57.185Z,102149.00
2023-03-28T17:46:24.949Z,102155.03
2023-03-28T17:48:52.137Z,102146.97
2023-03-28T17:51:19.355Z,102154.53
2023-03-28T17:53:47.304Z,102158.19
2023-03-28T17:56:16.736Z,102152.56
2023-03-28T17:58:44.612Z,102167.16
2023-03-28T18:01:17.522Z,102161.25
2023-03-28T18:03:46.260Z,102153.06
2023-03-28T18:06:14.154Z,102150.56
2023-03-28T18:08:42.870Z,102146.59
2023-03-28T18:11:14.292Z,102146.78
2023-03-28T18:13:41.413Z,102143.66
2023-03-28T18:16:11.240Z,102134.59
2023-03-28T18:18:39.006Z,102108.72
2023-03-28T18:21:08.550Z,102131.13
2023-03-28T18:23:36.360Z,102122.44
2023-03-28T18:26:04.035Z,102120.56
2023-03-28T18:28:31.098Z,102108.88
2023-03-28T18:31:07.433Z,102114.03
2023-03-28T18:33:35.517Z,102115.69
2023-03-28T18:36:02.694Z,102112.47
2023-03-28T18:38:29.639Z,102106.75
2023-03-28T18:40:57.486Z,102110.47
2023-03-28T18:43:24.378Z,102113.81
2023-03-28T18:45:55.182Z,102118.84
2023-03-28T18:48:22.280Z,102115.31
2023-03-28T18:50:49.337Z,102115.06
2023-03-28T18:53:16.993Z,102111.28
2023-03-28T18:55:44.115Z,102112.34
2023-03-28T18:58:11.869Z,102091.94
2023-03-28T19:00:38.885Z,102097.69
2023-03-28T19:03:06.174Z,102092.31
2023-03-28T19:05:39.093Z,102094.91
2023-03-28T19:08:06.125Z,102093.84
2023-03-28T19:10:32.870Z,102093.41
2023-03-28T19:12:59.784Z,102090.69
2023-03-28T19:15:27.259Z,102086.00
2023-03-28T19:17:54.213Z,102083.75
2023-03-28T19:20:21.233Z,102077.00
2023-03-28T19:22:48.291Z,102056.09
2023-03-28T19:25:16.356Z,102074.94
2023-03-28T19:27:43.945Z,102076.56
2023-03-28T19:30:11.000Z,102066.97
2023-03-28T19:32:38.053Z,102053.53
2023-03-28T19:35:05.426Z,102071.22
2023-03-28T19:37:32.384Z,102060.88
2023-03-28T19:39:59.493Z,102061.97
2023-03-28T19:42:26.537Z,102059.13
2023-03-28T19:44:54.495Z,102058.59
2023-03-28T19:47:22.197Z,102054.72
2023-03-28T19:49:49.579Z,102050.97
2023-03-28T19:52:16.319Z,102051.88
2023-03-28T19:54:43.384Z,102045.19
2023-03-28T19:57:10.437Z,102043.78
2023-03-28T19:59:37.470Z,102042.47
2023-03-28T20:02:04.407Z,102039.47
2023-03-28T20:04:31.940Z,102039.88
2023-03-28T20:06:58.905Z,102036.28
2023-03-28T20:09:26.094Z,102037.66
2023-03-28T20:11:53.274Z,102039.06
2023-03-28T20:14:21.479Z,102031.81
2023-03-28T20:16:48.782Z,102032.63
2023-03-28T20:19:18.293Z,102025.84
2023-03-28T20:21:45.454Z,102025.28
2023-03-28T20:24:12.590Z,102016.50
2023-03-28T20:26:40.124Z,102027.66
2023-03-28T20:29:10.393Z,102020.38
2023-03-28T20:31:37.600Z,102015.88
2023-03-28T20:34:04.674Z,101998.03
2023-03-28T20:36:33.004Z,102002.25
2023-03-28T20:39:01.691Z,102000.41
2023-03-28T20:41:29.865Z,102001.75
2023-03-28T20:44:03.726Z,101999.84
2023-03-28T20:46:38.339Z,101996.50
2023-03-28T20:49:06.524Z,101985.56
2023-03-28T20:51:36.907Z,101984.16
2023-03-28T20:54:05.442Z,101985.91
2023-03-28T20:56:32.639Z,101987.41
2023-03-28T20:58:59.782Z,101989.22
2023-03-28T21:01:30.810Z,101972.03
2023-03-28T21:03:59.139Z,101976.16
2023-03-28T21:06:30.028Z,101971.19
2023-03-28T21:09:01.991Z,101969.03
2023-03-28T21:11:31.554Z,101960.16
2023-03-28T21:14:00.237Z,101962.91
2023-03-28T21:16:29.300Z,101955.44
2023-03-28T21:18:56.776Z,101955.50
2023-03-28T21:21:23.904Z,101954.53
2023-03-28T21:23:53.344Z,101958.69
2023-03-28T21:26:23.530Z,101948.06
2023-03-28T21:28:52.641Z,101948.09
2023-03-28T21:31:28.422Z,101954.88
2023-03-28T21:33:59.967Z,101943.31
2023-03-28T21:36:28.014Z,101944.66
2023-03-28T21:38:56.301Z,101928.47
2023-03-28T21:41:23.736Z,101944.00
2023-03-28T21:43:53.017Z,101926.47
2023-03-28T21:46:20.992Z,101959.28
2023-03-28T21:48:48.754Z,101961.81
2023-03-28T21:51:17.625Z,101950.41
2023-03-28T21:53:44.924Z,101953.78
2023-03-28T21:56:16.646Z,101957.38
2023-03-28T21:58:43.833Z,101962.88
2023-03-28T22:01:14.554Z,101960.13
2023-03-28T22:03:41.725Z,101968.53
2023-03-28T22:06:09.592Z,101964.88
2023-03-28T22:08:36.846Z,101969.34
2023-03-28T22:11:11.097Z,101967.88
2023-03-28T22:13:39.109Z,101967.44
2023-03-28T22:16:09.604Z,101955.56
2023-03-28T22:18:39.176Z,101958.81
2023-03-28T22:21:06.570Z,101958.50
2023-03-28T22:23:33.815Z,101958.63
2023-03-28T22:26:00.857Z,101957.53
2023-03-28T22:28:27.706Z,101954.66
2023-03-28T22:30:55.790Z,101956.19
2023-03-28T22:33:23.712Z,101946.38
2023-03-28T22:35:51.057Z,101948.47
2023-03-28T22:38:19.632Z,101949.38
2023-03-28T22:40:47.780Z,101944.38
2023-03-28T22:43:16.389Z,101950.34
2023-03-28T22:45:43.345Z,101933.22
2023-03-28T22:48:16.444Z,101942.59
2023-03-28T22:50:44.629Z,101945.66
2023-03-28T22:55:39.762Z,101945.28
2023-03-28T22:58:06.834Z,101929.44
2023-03-28T23:00:34.438Z,101925.47
2023-03-28T23:03:01.968Z,101925.03
2023-03-28T23:05:29.200Z,101921.78
2023-03-28T23:07:56.301Z,101921.66
2023-03-28T23:10:29.024Z,101914.53
2023-03-28T23:12:56.898Z,101915.56
2023-03-28T23:15:24.036Z,101908.31
2023-03-28T23:17:51.010Z,101906.06
2023-03-28T23:20:19.255Z,101906.94
2023-03-28T23:22:48.047Z,101898.66
2023-03-28T23:25:17.346Z,101896.44
2023-03-28T23:27:44.816Z,101888.16
2023-03-28T23:30:14.043Z,101861.16
2023-03-28T23:32:41.009Z,101882.34
2023-03-28T23:35:10.016Z,101884.38
2023-03-28T23:37:38.533Z,101879.81
2023-03-28T23:40:06.715Z,101869.03
2023-03-28T23:42:33.636Z,101874.56
2023-03-28T23:45:00.931Z,101863.00
2023-03-28T23:47:27.944Z,101867.59
2023-03-28T23:49:54.668Z,101867.13
2023-03-28T23:52:21.768Z,101865.38
2023-03-28T23:54:48.865Z,101869.13
2023-03-28T23:57:15.740Z,101851.66
2023-03-28T23:59:42.596Z,101789.25
